sensor_id;sensor_type;location;lat;lon;timestamp;P1;P4;P2;P0;N10;N4;N25;N1;N05;TS
78703;SPS30;68034;51.966;5.676;2023-09-07T00:02:26;0.0;0.0;0.0;0.0;;;;1.0;73.0;
78703;SPS30;68034;51.966;5.676;2023-09-07T00:04:54;0.0;0.0;0.0;0.0;;;;1.0;72.0;
78703;SPS30;68034;51.966;5.676;2023-09-07T00:07:23;0.3;0.3;0.3;0.3;;;;1.0;71.0;
78703;SPS30;68034;51.966;5.676;2023-09-07T00:09:52;0.0;0.0;0.0;0.0;;;;1.0;71.0;
78703;SPS30;68034;51.966;5.676;2023-09-07T00:12:20;0.0;0.0;0.0;0.0;;;;1.0;70.0;
78703;SPS30;68034;51.966;5.676;2023-09-07T00:14:49;0.8;0.8;0.8;0.8;;;;1.0;70.0;
78703;SPS30;68034;51.966;5.676;2023-09-07T00:17:17;0.0;0.0;0.0;0.0;;;;1.0;70.0;
78703;SPS30;68034;51.966;5.676;2023-09-07T00:19:46;0.0;0.0;0.0;0.0;;;;1.0;70.0;
78703;SPS30;68034;51.966;5.676;2023-09-07T00:22:15;0.0;0.0;0.0;0.0;;;;1.0;69.0;
78703;SPS30;68034;51.966;5.676;2023-09-07T00:24:44;0.0;0.0;0.0;0.0;;;;1.0;69.0;
78703;SPS30;68034;51.966;5.676;2023-09-07T00:27:12;0.0;0.0;0.0;0.0;;;;1.0;68.0;
78703;SPS30;68034;51.966;5.676;2023-09-07T00:29:41;0.0;0.0;0.0;0.0;;;;1.0;68.0;
78703;SPS30;68034;51.966;5.676;2023-09-07T00:32:12;0.0;0.0;0.0;0.0;;;;1.0;68.0;
78703;SPS30;68034;51.966;5.676;2023-09-07T00:34:41;0.1;0.1;0.1;0.1;;;;1.0;67.0;
78703;SPS30;68034;51.966;5.676;2023-09-07T00:37:10;0.0;0.0;0.0;0.0;;;;1.0;67.0;
78703;SPS30;68034;51.966;5.676;2023-09-07T00:39:40;0.0;0.0;0.0;0.0;;;;1.0;67.0;
78703;SPS30;68034;51.966;5.676;2023-09-07T00:42:09;0.0;0.0;0.0;0.0;;;;1.0;67.0;
78703;SPS30;68034;51.966;5.676;2023-09-07T00:44:37;0.4;0.4;0.4;0.4;;;;1.0;67.0;
78703;SPS30;68034;51.966;5.676;2023-09-07T00:47:06;0.0;0.0;0.0;0.0;;;;1.0;67.0;
78703;SPS30;68034;51.966;5.676;2023-09-07T00:49:37;0.5;0.5;0.5;0.5;;;;1.0;66.0;
78703;SPS30;68034;51.966;5.676;2023-09-07T00:52:06;0.0;0.0;0.0;0.0;;;;1.0;66.0;
78703;SPS30;68034;51.966;5.676;2023-09-07T00:54:37;0.0;0.0;0.0;0.0;;;;1.0;66.0;
78703;SPS30;68034;51.966;5.676;2023-09-07T00:57:07;0.2;0.2;0.2;0.1;;;;1.0;66.0;
78703;SPS30;68034;51.966;5.676;2023-09-07T00:59:38;0.0;0.0;0.0;0.0;;;;1.0;66.0;
78703;SPS30;68034;51.966;5.676;2023-09-07T01:02:06;0.0;0.0;0.0;0.0;;;;1.0;66.0;
78703;SPS30;68034;51.966;5.676;2023-09-07T01:04:35;0.0;0.0;0.0;0.0;;;;1.0;66.0;
78703;SPS30;68034;51.966;5.676;2023-09-07T01:07:07;0.0;0.0;0.0;0.0;;;;1.0;65.0;
78703;SPS30;68034;51.966;5.676;2023-09-07T01:09:42;0.0;0.0;0.0;0.0;;;;1.0;65.0;
78703;SPS30;68034;51.966;5.676;2023-09-07T01:12:17;0.0;0.0;0.0;0.0;;;;1.0;65.0;
78703;SPS30;68034;51.966;5.676;2023-09-07T01:14:46;0.1;0.1;0.1;0.1;;;;1.0;64.0;
78703;SPS30;68034;51.966;5.676;2023-09-07T01:17:14;0.0;0.0;0.0;0.0;;;;1.0;64.0;
78703;SPS30;68034;51.966;5.676;2023-09-07T01:19:44;0.0;0.0;0.0;0.0;;;;1.0;64.0;
78703;SPS30;68034;51.966;5.676;2023-09-07T01:22:16;0.0;0.0;0.0;0.0;;;;1.0;63.0;
78703;SPS30;68034;51.966;5.676;2023-09-07T01:24:45;0.0;0.0;0.0;0.0;;;;1.0;63.0;
78703;SPS30;68034;51.966;5.676;2023-09-07T01:27:15;0.2;0.2;0.2;0.2;;;;1.0;63.0;
78703;SPS30;68034;51.966;5.676;2023-09-07T01:29:44;0.0;0.0;0.0;0.0;;;;1.0;63.0;
78703;SPS30;68034;51.966;5.676;2023-09-07T01:32:12;0.0;0.0;0.0;0.0;;;;1.0;63.0;
78703;SPS30;68034;51.966;5.676;2023-09-07T01:34:41;0.0;0.0;0.0;0.0;;;;1.0;63.0;
78703;SPS30;68034;51.966;5.676;2023-09-07T01:37:12;0.0;0.0;0.0;0.0;;;;1.0;62.0;
78703;SPS30;68034;51.966;5.676;2023-09-07T01:39:47;0.2;0.2;0.2;0.2;;;;1.0;62.0;
78703;SPS30;68034;51.966;5.676;2023-09-07T01:42:17;0.0;0.0;0.0;0.0;;;;1.0;62.0;
78703;SPS30;68034;51.966;5.676;2023-09-07T01:44:48;0.1;0.1;0.1;0.1;;;;1.0;62.0;
78703;SPS30;68034;51.966;5.676;2023-09-07T01:47:16;0.0;0.0;0.0;0.0;;;;1.0;62.0;
78703;SPS30;68034;51.966;5.676;2023-09-07T01:49:45;0.0;0.0;0.0;0.0;;;;1.0;63.0;
78703;SPS30;68034;51.966;5.676;2023-09-07T01:52:13;0.0;0.0;0.0;0.0;;;;1.0;62.0;
78703;SPS30;68034;51.966;5.676;2023-09-07T01:54:42;0.0;0.0;0.0;0.0;;;;1.0;62.0;
78703;SPS30;68034;51.966;5.676;2023-09-07T01:57:11;0.0;0.0;0.0;0.0;;;;1.0;62.0;
78703;SPS30;68034;51.966;5.676;2023-09-07T01:59:39;0.1;0.1;0.1;0.1;;;;1.0;61.0;
78703;SPS30;68034;51.966;5.676;2023-09-07T02:02:07;0.7;0.7;0.7;0.6;;;;1.0;61.0;
78703;SPS30;68034;51.966;5.676;2023-09-07T02:04:36;0.0;0.0;0.0;0.0;;;;1.0;60.0;
78703;SPS30;68034;51.966;5.676;2023-09-07T02:07:05;0.1;0.1;0.1;0.0;;;;1.0;60.0;
78703;SPS30;68034;51.966;5.676;2023-09-07T02:09:33;0.0;0.0;0.0;0.0;;;;1.0;60.0;
78703;SPS30;68034;51.966;5.676;2023-09-07T02:12:04;0.1;0.1;0.1;0.1;;;;1.0;60.0;
78703;SPS30;68034;51.966;5.676;2023-09-07T02:14:33;0.3;0.3;0.3;0.3;;;;1.0;59.0;
78703;SPS30;68034;51.966;5.676;2023-09-07T02:17:01;0.0;0.0;0.0;0.0;;;;1.0;59.0;
78703;SPS30;68034;51.966;5.676;2023-09-07T02:19:30;0.5;0.5;0.5;0.5;;;;1.0;58.0;
78703;SPS30;68034;51.966;5.676;2023-09-07T02:21:59;0.0;0.0;0.0;0.0;;;;1.0;58.0;
78703;SPS30;68034;51.966;5.676;2023-09-07T02:24:27;0.1;0.1;0.1;0.1;;;;1.0;57.0;
78703;SPS30;68034;51.966;5.676;2023-09-07T02:26:56;0.2;0.2;0.2;0.2;;;;1.0;57.0;
78703;SPS30;68034;51.966;5.676;2023-09-07T02:29:24;0.3;0.3;0.3;0.3;;;;1.0;57.0;
78703;SPS30;68034;51.966;5.676;2023-09-07T02:31:53;0.0;0.0;0.0;0.0;;;;1.0;57.0;
78703;SPS30;68034;51.966;5.676;2023-09-07T02:34:23;0.0;0.0;0.0;0.0;;;;1.0;57.0;
78703;SPS30;68034;51.966;5.676;2023-09-07T02:36:52;0.4;0.4;0.4;0.4;;;;1.0;56.0;
78703;SPS30;68034;51.966;5.676;2023-09-07T02:39:21;0.0;0.0;0.0;0.0;;;;1.0;56.0;
78703;SPS30;68034;51.966;5.676;2023-09-07T02:41:52;0.0;0.0;0.0;0.0;;;;1.0;56.0;
78703;SPS30;68034;51.966;5.676;2023-09-07T02:44:20;0.0;0.0;0.0;0.0;;;;1.0;56.0;
78703;SPS30;68034;51.966;5.676;2023-09-07T02:46:49;0.1;0.1;0.1;0.1;;;;1.0;56.0;
78703;SPS30;68034;51.966;5.676;2023-09-07T02:49:17;0.3;0.3;0.3;0.2;;;;1.0;56.0;
78703;SPS30;68034;51.966;5.676;2023-09-07T02:51:46;0.0;0.0;0.0;0.0;;;;1.0;56.0;
78703;SPS30;68034;51.966;5.676;2023-09-07T02:54:14;0.2;0.2;0.2;0.2;;;;1.0;55.0;
78703;SPS30;68034;51.966;5.676;2023-09-07T02:56:43;0.0;0.0;0.0;0.0;;;;1.0;55.0;
78703;SPS30;68034;51.966;5.676;2023-09-07T02:59:11;0.1;0.1;0.1;0.1;;;;1.0;55.0;
78703;SPS30;68034;51.966;5.676;2023-09-07T03:01:40;0.1;0.1;0.1;0.1;;;;1.0;54.0;
78703;SPS30;68034;51.966;5.676;2023-09-07T03:04:08;0.1;0.1;0.1;0.1;;;;1.0;54.0;
78703;SPS30;68034;51.966;5.676;2023-09-07T03:06:37;0.1;0.1;0.1;0.1;;;;1.0;54.0;
78703;SPS30;68034;51.966;5.676;2023-09-07T03:09:07;0.0;0.0;0.0;0.0;;;;1.0;54.0;
78703;SPS30;68034;51.966;5.676;2023-09-07T03:11:36;1.1;1.1;1.1;1.1;;;;1.0;54.0;
78703;SPS30;68034;51.966;5.676;2023-09-07T03:14:07;1.6;1.6;1.6;1.6;;;;1.0;54.0;
78703;SPS30;68034;51.966;5.676;2023-09-07T03:16:35;0.0;0.0;0.0;0.0;;;;1.0;53.0;
78703;SPS30;68034;51.966;5.676;2023-09-07T03:19:04;0.2;0.2;0.2;0.2;;;;1.0;53.0;
78703;SPS30;68034;51.966;5.676;2023-09-07T03:21:35;0.1;0.1;0.1;0.1;;;;1.0;53.0;
78703;SPS30;68034;51.966;5.676;2023-09-07T03:24:03;0.0;0.0;0.0;0.0;;;;1.0;52.0;
78703;SPS30;68034;51.966;5.676;2023-09-07T03:26:34;0.0;0.0;0.0;0.0;;;;1.0;52.0;
78703;SPS30;68034;51.966;5.676;2023-09-07T03:29:03;0.0;0.0;0.0;0.0;;;;1.0;52.0;
78703;SPS30;68034;51.966;5.676;2023-09-07T03:31:33;0.0;0.0;0.0;0.0;;;;1.0;52.0;
78703;SPS30;68034;51.966;5.676;2023-09-07T03:34:02;0.0;0.0;0.0;0.0;;;;1.0;52.0;
78703;SPS30;68034;51.966;5.676;2023-09-07T03:36:31;0.1;0.1;0.1;0.1;;;;1.0;52.0;
78703;SPS30;68034;51.966;5.676;2023-09-07T03:39:00;0.0;0.0;0.0;0.0;;;;1.0;52.0;
78703;SPS30;68034;51.966;5.676;2023-09-07T03:41:35;2.4;2.4;2.4;2.3;;;;1.0;52.0;
78703;SPS30;68034;51.966;5.676;2023-09-07T03:44:04;0.0;0.0;0.0;0.0;;;;1.0;53.0;
78703;SPS30;68034;51.966;5.676;2023-09-07T03:46:33;0.0;0.0;0.0;0.0;;;;1.0;54.0;
78703;SPS30;68034;51.966;5.676;2023-09-07T03:49:01;0.0;0.0;0.0;0.0;;;;1.0;55.0;
78703;SPS30;68034;51.966;5.676;2023-09-07T03:51:30;0.3;0.3;0.3;0.2;;;;1.0;54.0;
78703;SPS30;68034;51.966;5.676;2023-09-07T03:53:59;0.3;0.3;0.3;0.3;;;;1.0;54.0;
78703;SPS30;68034;51.966;5.676;2023-09-07T03:56:28;0.2;0.2;0.2;0.2;;;;1.0;54.0;
78703;SPS30;68034;51.966;5.676;2023-09-07T03:58:56;0.0;0.0;0.0;0.0;;;;1.0;53.0;
78703;SPS30;68034;51.966;5.676;2023-09-07T04:01:25;0.0;0.0;0.0;0.0;;;;1.0;53.0;
78703;SPS30;68034;51.966;5.676;2023-09-07T04:03:53;0.0;0.0;0.0;0.0;;;;1.0;53.0;
78703;SPS30;68034;51.966;5.676;2023-09-07T04:06:22;0.1;0.1;0.1;0.1;;;;1.0;52.0;
78703;SPS30;68034;51.966;5.676;2023-09-07T04:08:51;0.4;0.4;0.4;0.4;;;;1.0;52.0;
78703;SPS30;68034;51.966;5.676;2023-09-07T04:11:20;0.2;0.2;0.2;0.2;;;;1.0;52.0;
78703;SPS30;68034;51.966;5.676;2023-09-07T04:13:48;0.2;0.2;0.2;0.2;;;;1.0;51.0;
78703;SPS30;68034;51.966;5.676;2023-09-07T04:16:19;0.0;0.0;0.0;0.0;;;;1.0;51.0;
78703;SPS30;68034;51.966;5.676;2023-09-07T04:18:49;0.2;0.2;0.2;0.2;;;;1.0;51.0;
78703;SPS30;68034;51.966;5.676;2023-09-07T04:21:17;0.0;0.0;0.0;0.0;;;;1.0;51.0;
78703;SPS30;68034;51.966;5.676;2023-09-07T04:23:47;0.0;0.0;0.0;0.0;;;;1.0;51.0;
78703;SPS30;68034;51.966;5.676;2023-09-07T04:26:16;0.0;0.0;0.0;0.0;;;;1.0;51.0;
78703;SPS30;68034;51.966;5.676;2023-09-07T04:28:44;0.0;0.0;0.0;0.0;;;;1.0;50.0;
78703;SPS30;68034;51.966;5.676;2023-09-07T04:31:13;0.1;0.1;0.1;0.1;;;;1.0;50.0;
78703;SPS30;68034;51.966;5.676;2023-09-07T04:33:41;0.1;0.1;0.1;0.1;;;;1.0;50.0;
78703;SPS30;68034;51.966;5.676;2023-09-07T04:36:10;0.0;0.0;0.0;0.0;;;;1.0;50.0;
78703;SPS30;68034;51.966;5.676;2023-09-07T04:38:41;0.0;0.0;0.0;0.0;;;;1.0;50.0;
78703;SPS30;68034;51.966;5.676;2023-09-07T04:41:10;0.0;0.0;0.0;0.0;;;;1.0;50.0;
78703;SPS30;68034;51.966;5.676;2023-09-07T04:43:41;0.0;0.0;0.0;0.0;;;;1.0;50.0;
78703;SPS30;68034;51.966;5.676;2023-09-07T04:46:11;0.0;0.0;0.0;0.0;;;;1.0;50.0;
78703;SPS30;68034;51.966;5.676;2023-09-07T04:48:41;0.0;0.0;0.0;0.0;;;;1.0;49.0;
78703;SPS30;68034;51.966;5.676;2023-09-07T04:51:09;0.0;0.0;0.0;0.0;;;;1.0;48.0;
78703;SPS30;68034;51.966;5.676;2023-09-07T04:53:39;0.0;0.0;0.0;0.0;;;;1.0;48.0;
78703;SPS30;68034;51.966;5.676;2023-09-07T04:56:10;0.0;0.0;0.0;0.0;;;;1.0;47.0;
78703;SPS30;68034;51.966;5.676;2023-09-07T04:58:38;0.0;0.0;0.0;0.0;;;;1.0;46.0;
78703;SPS30;68034;51.966;5.676;2023-09-07T05:01:07;0.0;0.0;0.0;0.0;;;;1.0;46.0;
78703;SPS30;68034;51.966;5.676;2023-09-07T05:03:37;0.0;0.0;0.0;0.0;;;;1.0;46.0;
78703;SPS30;68034;51.966;5.676;2023-09-07T05:06:07;0.0;0.0;0.0;0.0;;;;1.0;46.0;
78703;SPS30;68034;51.966;5.676;2023-09-07T05:08:36;0.2;0.2;0.2;0.2;;;;1.0;46.0;
78703;SPS30;68034;51.966;5.676;2023-09-07T05:11:04;0.0;0.0;0.0;0.0;;;;1.0;46.0;
78703;SPS30;68034;51.966;5.676;2023-09-07T05:13:33;0.0;0.0;0.0;0.0;;;;1.0;46.0;
78703;SPS30;68034;51.966;5.676;2023-09-07T05:16:02;0.0;0.0;0.0;0.0;;;;1.0;46.0;
78703;SPS30;68034;51.966;5.676;2023-09-07T05:18:31;0.0;0.0;0.0;0.0;;;;1.0;46.0;
78703;SPS30;68034;51.966;5.676;2023-09-07T05:20:59;0.0;0.0;0.0;0.0;;;;1.0;46.0;
78703;SPS30;68034;51.966;5.676;2023-09-07T05:23:28;0.0;0.0;0.0;0.0;;;;1.0;47.0;
78703;SPS30;68034;51.966;5.676;2023-09-07T05:25:56;0.0;0.0;0.0;0.0;;;;1.0;47.0;
78703;SPS30;68034;51.966;5.676;2023-09-07T05:28:25;0.0;0.0;0.0;0.0;;;;1.0;47.0;
78703;SPS30;68034;51.966;5.676;2023-09-07T05:30:53;2.2;2.2;2.2;2.1;;;;1.0;47.0;
78703;SPS30;68034;51.966;5.676;2023-09-07T05:33:22;0.1;0.1;0.1;0.1;;;;1.0;48.0;
78703;SPS30;68034;51.966;5.676;2023-09-07T05:35:50;0.2;0.2;0.2;0.2;;;;1.0;47.0;
78703;SPS30;68034;51.966;5.676;2023-09-07T05:38:19;0.0;0.0;0.0;0.0;;;;1.0;47.0;
78703;SPS30;68034;51.966;5.676;2023-09-07T05:40:50;0.0;0.0;0.0;0.0;;;;1.0;47.0;
78703;SPS30;68034;51.966;5.676;2023-09-07T05:43:22;0.0;0.0;0.0;0.0;;;;1.0;47.0;
78703;SPS30;68034;51.966;5.676;2023-09-07T05:45:52;0.0;0.0;0.0;0.0;;;;2.0;49.0;
78703;SPS30;68034;51.966;5.676;2023-09-07T05:48:20;0.0;0.0;0.0;0.0;;;;2.0;50.0;
78703;SPS30;68034;51.966;5.676;2023-09-07T05:50:49;0.1;0.1;0.1;0.1;;;;2.0;50.0;
78703;SPS30;68034;51.966;5.676;2023-09-07T05:53:18;0.0;0.0;0.0;0.0;;;;2.0;51.0;
78703;SPS30;68034;51.966;5.676;2023-09-07T05:55:47;0.0;0.0;0.0;0.0;;;;2.0;51.0;
78703;SPS30;68034;51.966;5.676;2023-09-07T05:58:16;0.0;0.0;0.0;0.0;;;;2.0;50.0;
78703;SPS30;68034;51.966;5.676;2023-09-07T06:00:45;0.2;0.2;0.2;0.2;;;;2.0;50.0;
78703;SPS30;68034;51.966;5.676;2023-09-07T06:03:14;0.1;0.1;0.1;0.1;;;;2.0;50.0;
78703;SPS30;68034;51.966;5.676;2023-09-07T06:05:42;0.0;0.0;0.0;0.0;;;;2.0;49.0;
78703;SPS30;68034;51.966;5.676;2023-09-07T06:08:11;0.0;0.0;0.0;0.0;;;;2.0;49.0;
78703;SPS30;68034;51.966;5.676;2023-09-07T06:10:39;0.0;0.0;0.0;0.0;;;;2.0;48.0;
78703;SPS30;68034;51.966;5.676;2023-09-07T06:13:08;0.0;0.0;0.0;0.0;;;;2.0;48.0;
78703;SPS30;68034;51.966;5.676;2023-09-07T06:15:36;0.3;0.3;0.3;0.2;;;;2.0;48.0;
78703;SPS30;68034;51.966;5.676;2023-09-07T06:18:05;0.0;0.0;0.0;0.0;;;;2.0;49.0;
78703;SPS30;68034;51.966;5.676;2023-09-07T06:20:34;1.8;1.8;1.8;1.7;;;;2.0;49.0;
78703;SPS30;68034;51.966;5.676;2023-09-07T06:23:03;3.3;3.3;3.3;3.1;;;;2.0;48.0;
78703;SPS30;68034;51.966;5.676;2023-09-07T06:25:32;0.1;0.1;0.1;0.1;;;;2.0;48.0;
78703;SPS30;68034;51.966;5.676;2023-09-07T06:28:00;0.0;0.0;0.0;0.0;;;;2.0;48.0;
78703;SPS30;68034;51.966;5.676;2023-09-07T06:30:29;0.1;0.1;0.1;0.1;;;;2.0;48.0;
78703;SPS30;68034;51.966;5.676;2023-09-07T06:32:59;0.0;0.0;0.0;0.0;;;;2.0;47.0;
78703;SPS30;68034;51.966;5.676;2023-09-07T06:35:27;0.3;0.3;0.3;0.2;;;;2.0;47.0;
78703;SPS30;68034;51.966;5.676;2023-09-07T06:37:56;0.0;0.0;0.0;0.0;;;;2.0;47.0;
78703;SPS30;68034;51.966;5.676;2023-09-07T06:40:24;0.0;0.0;0.0;0.0;;;;2.0;47.0;
78703;SPS30;68034;51.966;5.676;2023-09-07T06:42:56;0.2;0.2;0.2;0.2;;;;2.0;47.0;
78703;SPS30;68034;51.966;5.676;2023-09-07T06:45:24;0.3;0.3;0.3;0.2;;;;2.0;47.0;
78703;SPS30;68034;51.966;5.676;2023-09-07T06:47:53;0.5;0.5;0.5;0.5;;;;2.0;48.0;
78703;SPS30;68034;51.966;5.676;2023-09-07T06:50:22;0.0;0.0;0.0;0.0;;;;2.0;49.0;
78703;SPS30;68034;51.966;5.676;2023-09-07T06:52:50;0.0;0.0;0.0;0.0;;;;2.0;50.0;
78703;SPS30;68034;51.966;5.676;2023-09-07T06:55:19;0.3;0.3;0.3;0.3;;;;2.0;51.0;
78703;SPS30;68034;51.966;5.676;2023-09-07T06:57:48;0.0;0.0;0.0;0.0;;;;2.0;53.0;
78703;SPS30;68034;51.966;5.676;2023-09-07T07:00:16;0.9;0.9;0.9;0.9;;;;2.0;54.0;
78703;SPS30;68034;51.966;5.676;2023-09-07T07:02:45;0.0;0.0;0.0;0.0;;;;3.0;54.0;
78703;SPS30;68034;51.966;5.676;2023-09-07T07:05:14;2.3;2.3;2.3;2.2;;;;3.0;55.0;
78703;SPS30;68034;51.966;5.676;2023-09-07T07:07:42;0.3;0.3;0.3;0.3;;;;3.0;56.0;
78703;SPS30;68034;51.966;5.676;2023-09-07T07:10:11;0.2;0.2;0.2;0.2;;;;3.0;57.0;
78703;SPS30;68034;51.966;5.676;2023-09-07T07:12:40;0.3;0.3;0.3;0.3;;;;3.0;58.0;
78703;SPS30;68034;51.966;5.676;2023-09-07T07:15:09;4.7;4.7;4.7;4.4;;;;3.0;60.0;
78703;SPS30;68034;51.966;5.676;2023-09-07T07:17:38;0.0;0.0;0.0;0.0;;;;3.0;61.0;
78703;SPS30;68034;51.966;5.676;2023-09-07T07:20:07;0.0;0.0;0.0;0.0;;;;3.0;61.0;
78703;SPS30;68034;51.966;5.676;2023-09-07T07:22:38;0.0;0.0;0.0;0.0;;;;3.0;62.0;
78703;SPS30;68034;51.966;5.676;2023-09-07T07:25:07;0.2;0.2;0.2;0.2;;;;3.0;63.0;
78703;SPS30;68034;51.966;5.676;2023-09-07T07:27:37;0.0;0.0;0.0;0.0;;;;3.0;64.0;
78703;SPS30;68034;51.966;5.676;2023-09-07T07:30:06;0.1;0.1;0.1;0.1;;;;3.0;66.0;
78703;SPS30;68034;51.966;5.676;2023-09-07T07:32:35;0.0;0.0;0.0;0.0;;;;3.0;68.0;
78703;SPS30;68034;51.966;5.676;2023-09-07T07:35:05;0.1;0.1;0.1;0.1;;;;3.0;68.0;
78703;SPS30;68034;51.966;5.676;2023-09-07T07:37:34;0.1;0.1;0.1;0.1;;;;3.0;69.0;
78703;SPS30;68034;51.966;5.676;2023-09-07T07:40:03;2.5;2.5;2.5;2.4;;;;3.0;71.0;
78703;SPS30;68034;51.966;5.676;2023-09-07T07:42:32;0.0;0.0;0.0;0.0;;;;3.0;72.0;
78703;SPS30;68034;51.966;5.676;2023-09-07T07:45:00;0.1;0.1;0.1;0.1;;;;3.0;76.0;
78703;SPS30;68034;51.966;5.676;2023-09-07T07:47:29;0.1;0.1;0.1;0.1;;;;3.0;78.0;
78703;SPS30;68034;51.966;5.676;2023-09-07T07:49:57;0.0;0.0;0.0;0.0;;;;3.0;78.0;
78703;SPS30;68034;51.966;5.676;2023-09-07T07:52:26;0.7;0.7;0.7;0.7;;;;3.0;79.0;
78703;SPS30;68034;51.966;5.676;2023-09-07T07:54:55;0.1;0.1;0.1;0.0;;;;3.0;79.0;
78703;SPS30;68034;51.966;5.676;2023-09-07T07:57:24;0.1;0.1;0.1;0.1;;;;3.0;80.0;
78703;SPS30;68034;51.966;5.676;2023-09-07T07:59:53;0.0;0.0;0.0;0.0;;;;3.0;83.0;
78703;SPS30;68034;51.966;5.676;2023-09-07T08:02:24;0.0;0.0;0.0;0.0;;;;3.0;84.0;
78703;SPS30;68034;51.966;5.676;2023-09-07T08:04:54;0.2;0.2;0.2;0.2;;;;3.0;85.0;
78703;SPS30;68034;51.966;5.676;2023-09-07T08:07:22;0.0;0.0;0.0;0.0;;;;3.0;87.0;
78703;SPS30;68034;51.966;5.676;2023-09-07T08:09:52;0.0;0.0;0.0;0.0;;;;2.0;88.0;
78703;SPS30;68034;51.966;5.676;2023-09-07T08:12:21;0.1;0.1;0.1;0.1;;;;2.0;90.0;
78703;SPS30;68034;51.966;5.676;2023-09-07T08:14:49;0.4;0.4;0.4;0.4;;;;2.0;91.0;
78703;SPS30;68034;51.966;5.676;2023-09-07T08:17:22;0.0;0.0;0.0;0.0;;;;2.0;94.0;
78703;SPS30;68034;51.966;5.676;2023-09-07T08:19:52;0.0;0.0;0.0;0.0;;;;2.0;94.0;
78703;SPS30;68034;51.966;5.676;2023-09-07T08:22:22;0.2;0.2;0.2;0.2;;;;2.0;95.0;
78703;SPS30;68034;51.966;5.676;2023-09-07T08:24:53;1.0;1.0;1.0;1.0;;;;2.0;96.0;
78703;SPS30;68034;51.966;5.676;2023-09-07T08:27:23;0.0;0.0;0.0;0.0;;;;2.0;96.0;
78703;SPS30;68034;51.966;5.676;2023-09-07T08:29:51;0.0;0.0;0.0;0.0;;;;2.0;98.0;
78703;SPS30;68034;51.966;5.676;2023-09-07T08:32:20;0.3;0.3;0.3;0.3;;;;2.0;99.0;
78703;SPS30;68034;51.966;5.676;2023-09-07T08:34:49;0.2;0.2;0.2;0.2;;;;2.0;102.0;
78703;SPS30;68034;51.966;5.676;2023-09-07T08:37:22;0.0;0.0;0.0;0.0;;;;2.0;104.0;
78703;SPS30;68034;51.966;5.676;2023-09-07T08:39:51;5.7;5.7;5.7;5.4;;;;2.0;107.0;
78703;SPS30;68034;51.966;5.676;2023-09-07T08:42:22;0.1;0.1;0.1;0.1;;;;2.0;109.0;
78703;SPS30;68034;51.966;5.676;2023-09-07T08:44:51;0.7;0.7;0.7;0.6;;;;2.0;113.0;
78703;SPS30;68034;51.966;5.676;2023-09-07T08:47:24;0.0;0.0;0.0;0.0;;;;2.0;115.0;
78703;SPS30;68034;51.966;5.676;2023-09-07T08:49:57;0.2;0.2;0.2;0.1;;;;2.0;116.0;
78703;SPS30;68034;51.966;5.676;2023-09-07T08:52:26;0.1;0.1;0.1;0.1;;;;2.0;116.0;
78703;SPS30;68034;51.966;5.676;2023-09-07T08:54:58;0.3;0.3;0.3;0.2;;;;2.0;116.0;
78703;SPS30;68034;51.966;5.676;2023-09-07T08:57:31;0.2;0.2;0.2;0.2;;;;2.0;117.0;
78703;SPS30;68034;51.966;5.676;2023-09-07T09:00:00;0.0;0.0;0.0;0.0;;;;2.0;119.0;
78703;SPS30;68034;51.966;5.676;2023-09-07T09:02:34;0.0;0.0;0.0;0.0;;;;2.0;124.0;
78703;SPS30;68034;51.966;5.676;2023-09-07T09:05:06;0.3;0.3;0.3;0.3;;;;2.0;127.0;
78703;SPS30;68034;51.966;5.676;2023-09-07T09:07:37;0.2;0.2;0.2;0.2;;;;2.0;130.0;
78703;SPS30;68034;51.966;5.676;2023-09-07T09:10:07;0.1;0.1;0.1;0.1;;;;2.0;130.0;
78703;SPS30;68034;51.966;5.676;2023-09-07T09:12:36;0.1;0.1;0.1;0.0;;;;1.0;134.0;
78703;SPS30;68034;51.966;5.676;2023-09-07T09:15:14;0.2;0.2;0.2;0.2;;;;1.0;137.0;
78703;SPS30;68034;51.966;5.676;2023-09-07T09:17:43;0.5;0.5;0.5;0.4;;;;1.0;136.0;
78703;SPS30;68034;51.966;5.676;2023-09-07T09:20:21;0.0;0.0;0.0;0.0;;;;1.0;138.0;
78703;SPS30;68034;51.966;5.676;2023-09-07T09:22:54;0.0;0.0;0.0;0.0;;;;1.0;143.0;
78703;SPS30;68034;51.966;5.676;2023-09-07T09:25:23;0.6;0.6;0.6;0.6;;;;1.0;147.0;
78703;SPS30;68034;51.966;5.676;2023-09-07T09:27:52;0.0;0.0;0.0;0.0;;;;1.0;146.0;
78703;SPS30;68034;51.966;5.676;2023-09-07T09:30:24;0.5;0.5;0.5;0.5;;;;1.0;150.0;
78703;SPS30;68034;51.966;5.676;2023-09-07T09:32:53;0.4;0.4;0.4;0.4;;;;1.0;150.0;
78703;SPS30;68034;51.966;5.676;2023-09-07T09:35:22;0.2;0.2;0.2;0.1;;;;1.0;149.0;
78703;SPS30;68034;51.966;5.676;2023-09-07T09:37:54;2.2;2.2;2.2;2.1;;;;1.0;152.0;
78703;SPS30;68034;51.966;5.676;2023-09-07T09:40:23;0.0;0.0;0.0;0.0;;;;1.0;158.0;
78703;SPS30;68034;51.966;5.676;2023-09-07T09:42:53;0.2;0.2;0.2;0.2;;;;1.0;161.0;
78703;SPS30;68034;51.966;5.676;2023-09-07T09:45:28;0.2;0.2;0.2;0.2;;;;1.0;165.0;
78703;SPS30;68034;51.966;5.676;2023-09-07T09:48:09;0.1;0.1;0.1;0.1;;;;1.0;169.0;
78703;SPS30;68034;51.966;5.676;2023-09-07T09:50:38;0.2;0.2;0.2;0.2;;;;1.0;172.0;
78703;SPS30;68034;51.966;5.676;2023-09-07T09:53:08;0.5;0.5;0.5;0.5;;;;1.0;185.0;
78703;SPS30;68034;51.966;5.676;2023-09-07T09:55:42;0.0;0.0;0.0;0.0;;;;1.0;183.0;
78703;SPS30;68034;51.966;5.676;2023-09-07T09:58:12;0.7;0.7;0.7;0.6;;;;1.0;183.0;
78703;SPS30;68034;51.966;5.676;2023-09-07T10:00:42;0.1;0.1;0.1;0.1;;;;1.0;185.0;
78703;SPS30;68034;51.966;5.676;2023-09-07T10:03:12;0.1;0.1;0.1;0.1;;;;1.0;183.0;
78703;SPS30;68034;51.966;5.676;2023-09-07T10:05:49;0.2;0.2;0.2;0.2;;;;1.0;185.0;
78703;SPS30;68034;51.966;5.676;2023-09-07T10:08:20;1.0;1.0;1.0;1.0;;;;1.0;184.0;
78703;SPS30;68034;51.966;5.676;2023-09-07T10:10:52;0.6;0.6;0.6;0.5;;;;1.0;182.0;
78703;SPS30;68034;51.966;5.676;2023-09-07T10:13:30;0.2;0.2;0.2;0.2;;;;1.0;184.0;
78703;SPS30;68034;51.966;5.676;2023-09-07T10:16:04;0.0;0.0;0.0;0.0;;;;1.0;193.0;
78703;SPS30;68034;51.966;5.676;2023-09-07T10:18:35;0.3;0.3;0.3;0.3;;;;1.0;197.0;
78703;SPS30;68034;51.966;5.676;2023-09-07T10:21:05;0.1;0.1;0.1;0.1;;;;1.0;195.0;
78703;SPS30;68034;51.966;5.676;2023-09-07T10:23:38;0.9;0.9;0.9;0.9;;;;1.0;197.0;
78703;SPS30;68034;51.966;5.676;2023-09-07T10:26:11;0.0;0.0;0.0;0.0;;;;1.0;206.0;
78703;SPS30;68034;51.966;5.676;2023-09-07T10:28:41;0.1;0.1;0.1;0.1;;;;1.0;207.0;
78703;SPS30;68034;51.966;5.676;2023-09-07T10:31:17;0.0;0.0;0.0;0.0;;;;1.0;208.0;
78703;SPS30;68034;51.966;5.676;2023-09-07T10:33:47;0.0;0.0;0.0;0.0;;;;1.0;212.0;
78703;SPS30;68034;51.966;5.676;2023-09-07T10:36:22;0.2;0.2;0.2;0.2;;;;1.0;211.0;
78703;SPS30;68034;51.966;5.676;2023-09-07T10:38:53;0.7;0.7;0.7;0.6;;;;1.0;214.0;
78703;SPS30;68034;51.966;5.676;2023-09-07T10:41:23;0.0;0.0;0.0;0.0;;;;1.0;220.0;
78703;SPS30;68034;51.966;5.676;2023-09-07T10:43:53;0.1;0.1;0.1;0.1;;;;1.0;218.0;
78703;SPS30;68034;51.966;5.676;2023-09-07T10:46:23;4.0;4.0;4.0;3.8;;;;1.0;217.0;
78703;SPS30;68034;51.966;5.676;2023-09-07T10:48:54;0.5;0.5;0.5;0.5;;;;1.0;220.0;
78703;SPS30;68034;51.966;5.676;2023-09-07T10:51:25;0.2;0.2;0.2;0.2;;;;1.0;220.0;
78703;SPS30;68034;51.966;5.676;2023-09-07T10:53:55;0.3;0.3;0.3;0.3;;;;1.0;223.0;
78703;SPS30;68034;51.966;5.676;2023-09-07T10:56:27;0.1;0.1;0.1;0.1;;;;1.0;225.0;
78703;SPS30;68034;51.966;5.676;2023-09-07T10:58:55;0.4;0.4;0.4;0.3;;;;1.0;226.0;
78703;SPS30;68034;51.966;5.676;2023-09-07T11:01:24;0.3;0.3;0.3;0.2;;;;1.0;232.0;
78703;SPS30;68034;51.966;5.676;2023-09-07T11:03:52;0.0;0.0;0.0;0.0;;;;1.0;231.0;
78703;SPS30;68034;51.966;5.676;2023-09-07T11:06:21;0.3;0.3;0.3;0.3;;;;1.0;236.0;
78703;SPS30;68034;51.966;5.676;2023-09-07T11:08:50;0.0;0.0;0.0;0.0;;;;1.0;236.0;
78703;SPS30;68034;51.966;5.676;2023-09-07T11:11:19;0.2;0.2;0.2;0.2;;;;1.0;238.0;
78703;SPS30;68034;51.966;5.676;2023-09-07T11:13:49;0.4;0.4;0.4;0.3;;;;1.0;234.0;
78703;SPS30;68034;51.966;5.676;2023-09-07T11:16:18;0.2;0.2;0.2;0.2;;;;1.0;233.0;
78703;SPS30;68034;51.966;5.676;2023-09-07T11:18:47;0.2;0.2;0.2;0.2;;;;1.0;230.0;
78703;SPS30;68034;51.966;5.676;2023-09-07T11:21:15;0.2;0.2;0.2;0.2;;;;1.0;233.0;
78703;SPS30;68034;51.966;5.676;2023-09-07T11:23:45;0.2;0.2;0.2;0.2;;;;1.0;235.0;
78703;SPS30;68034;51.966;5.676;2023-09-07T11:26:15;0.3;0.3;0.3;0.3;;;;1.0;237.0;
78703;SPS30;68034;51.966;5.676;2023-09-07T11:28:44;0.5;0.5;0.5;0.5;;;;1.0;236.0;
78703;SPS30;68034;51.966;5.676;2023-09-07T11:31:13;0.2;0.2;0.2;0.2;;;;1.0;233.0;
78703;SPS30;68034;51.966;5.676;2023-09-07T11:33:47;0.0;0.0;0.0;0.0;;;;1.0;233.0;
78703;SPS30;68034;51.966;5.676;2023-09-07T11:36:16;0.2;0.2;0.2;0.2;;;;1.0;235.0;
78703;SPS30;68034;51.966;5.676;2023-09-07T11:38:49;1.2;1.2;1.2;1.1;;;;1.0;234.0;
78703;SPS30;68034;51.966;5.676;2023-09-07T11:41:19;0.4;0.4;0.4;0.3;;;;1.0;222.0;
78703;SPS30;68034;51.966;5.676;2023-09-07T11:43:48;0.3;0.3;0.3;0.3;;;;1.0;222.0;
78703;SPS30;68034;51.966;5.676;2023-09-07T11:46:16;0.1;0.1;0.1;0.1;;;;1.0;223.0;
78703;SPS30;68034;51.966;5.676;2023-09-07T11:48:45;0.6;0.6;0.6;0.6;;;;1.0;226.0;
78703;SPS30;68034;51.966;5.676;2023-09-07T11:51:13;0.3;0.3;0.3;0.2;;;;1.0;225.0;
78703;SPS30;68034;51.966;5.676;2023-09-07T11:53:42;0.2;0.2;0.2;0.2;;;;1.0;232.0;
78703;SPS30;68034;51.966;5.676;2023-09-07T11:56:10;0.3;0.3;0.3;0.3;;;;1.0;236.0;
78703;SPS30;68034;51.966;5.676;2023-09-07T11:58:39;1.2;1.2;1.2;1.1;;;;1.0;236.0;
78703;SPS30;68034;51.966;5.676;2023-09-07T12:01:10;0.4;0.4;0.4;0.4;;;;1.0;239.0;
78703;SPS30;68034;51.966;5.676;2023-09-07T12:03:42;0.2;0.2;0.2;0.2;;;;1.0;234.0;
78703;SPS30;68034;51.966;5.676;2023-09-07T12:06:11;0.1;0.1;0.1;0.1;;;;1.0;230.0;
78703;SPS30;68034;51.966;5.676;2023-09-07T12:08:41;0.7;0.7;0.7;0.6;;;;1.0;228.0;
78703;SPS30;68034;51.966;5.676;2023-09-07T12:11:15;0.1;0.1;0.1;0.1;;;;1.0;232.0;
78703;SPS30;68034;51.966;5.676;2023-09-07T12:13:44;0.1;0.1;0.1;0.1;;;;1.0;234.0;
78703;SPS30;68034;51.966;5.676;2023-09-07T12:16:12;0.3;0.3;0.3;0.3;;;;1.0;237.0;
78703;SPS30;68034;51.966;5.676;2023-09-07T12:18:41;0.5;0.5;0.5;0.5;;;;1.0;242.0;
78703;SPS30;68034;51.966;5.676;2023-09-07T12:21:09;0.2;0.2;0.2;0.2;;;;1.0;240.0;